Time;durP1;ratioP1;P1;durP2;ratioP2;P2;SDS_P1;SDS_P2;PMS_P1;PMS_P2;Temp;Humidity;BMP_temperature;BMP_pressure;BME280_temperature;BME280_humidity;BME280_pressure;Samples;Min_cycle;Max_cycle;Signal;HPM_P1;HPM_P2
2023/09/01 00:00:43;;;;;;;;;;;12.30;99.90;;;;;;5071562;28;20381;-43
2023/09/01 00:03:08;;;;;;;;;;;12.20;99.90;;;;;;5062818;28;20371;-46
2023/09/01 00:05:35;;;;;;;;;;;12.30;99.90;;;;;;5072321;28;19924;-44
2023/09/01 00:08:00;;;;;;;;;;;12.20;99.90;;;;;;5072406;28;19909;-43
2023/09/01 00:10:26;;;;;;;;;;;12.20;99.90;;;;;;5071567;28;19918;-44
2023/09/01 00:12:51;;;;;;;;;;;12.30;99.90;;;;;;5071384;28;20359;-43
2023/09/01 00:15:17;;;;;;;;;;;12.30;99.90;;;;;;5072449;28;19908;-44
2023/09/01 00:17:42;;;;;;;;;;;12.30;99.90;;;;;;5072290;28;19919;-42
2023/09/01 00:20:08;;;;;;;;;;;12.30;99.90;;;;;;5072331;28;19919;-44
2023/09/01 00:22:34;;;;;;;;;;;12.30;99.90;;;;;;5071769;28;20413;-44
2023/09/01 00:25:00;;;;;;;;;;;12.20;99.90;;;;;;5071136;28;19986;-44
2023/09/01 00:27:25;;;;;;;;;;;12.20;99.90;;;;;;5071730;28;19919;-43
2023/09/01 00:29:51;;;;;;;;;;;12.20;99.90;;;;;;5071574;28;19958;-42
2023/09/01 00:32:16;;;;;;;;;;;12.20;99.90;;;;;;5071306;28;19999;-43
2023/09/01 00:34:42;;;;;;;;;;;12.20;99.90;;;;;;5071410;28;19913;-43
2023/09/01 00:37:07;;;;;;;;;;;12.20;99.90;;;;;;5071526;28;19912;-46
2023/09/01 00:39:33;;;;;;;;;;;12.20;99.90;;;;;;5071516;28;20349;-44
2023/09/01 00:41:59;;;;;;;;;;;12.20;99.90;;;;;;5072117;28;19967;-43
2023/09/01 00:44:24;;;;;;;;;;;12.20;99.90;;;;;;5071651;28;19921;-43
2023/09/01 00:46:50;;;;;;;;;;;12.10;99.90;;;;;;5072118;28;19931;-44
2023/09/01 00:49:17;;;;;;;;;;;12.20;99.90;;;;;;5063161;28;19908;-44
2023/09/01 00:51:46;;;;;;;;;;;12.20;99.90;;;;;;5053703;28;19928;-44
2023/09/01 00:54:12;;;;;;;;;;;12.10;99.90;;;;;;5055712;28;19909;-43
2023/09/01 00:56:38;;;;;;;;;;;12.10;99.90;;;;;;5065519;28;19995;-45
2023/09/01 00:59:04;;;;;;;;;;;12.10;99.90;;;;;;5075640;28;19951;-45
2023/09/01 01:01:29;;;;;;;;;;;12.10;99.90;;;;;;5075229;28;19919;-46
2023/09/01 01:03:55;;;;;;;;;;;12.10;99.90;;;;;;5074911;28;19924;-43
2023/09/01 01:06:36;;;;;;;;;;;12.10;99.90;;;;;;5074985;28;19912;-45
2023/09/01 01:09:09;;;;;;;;;;;12.10;99.90;;;;;;5075290;28;19959;-44
2023/09/01 01:11:47;;;;;;;;;;;12.20;99.90;;;;;;5075022;28;20283;-45
2023/09/01 01:14:28;;;;;;;;;;;12.10;99.90;;;;;;5074992;28;19954;-43
2023/09/01 01:16:55;;;;;;;;;;;12.10;99.90;;;;;;5075022;28;19916;-43
2023/09/01 01:19:26;;;;;;;;;;;12.20;99.90;;;;;;5075008;28;19912;-44
2023/09/01 01:21:52;;;;;;;;;;;12.10;99.90;;;;;;5074572;28;19920;-45
2023/09/01 01:24:18;;;;;;;;;;;12.20;99.90;;;;;;5074845;28;19927;-43
2023/09/01 01:26:44;;;;;;;;;;;12.20;99.90;;;;;;5074446;28;19916;-46
2023/09/01 01:29:09;;;;;;;;;;;12.20;99.90;;;;;;5074482;28;19912;-43
2023/09/01 01:31:35;;;;;;;;;;;12.20;99.90;;;;;;5074719;28;20382;-42
2023/09/01 01:34:20;;;;;;;;;;;12.10;99.90;;;;;;5074813;28;19908;-43
2023/09/01 01:36:49;;;;;;;;;;;12.10;99.90;;;;;;5059772;28;19913;-43
2023/09/01 01:39:24;;;;;;;;;;;12.10;99.90;;;;;;5073744;28;19990;-43
2023/09/01 01:41:59;;;;;;;;;;;12.10;99.90;;;;;;5074068;28;19934;-44
2023/09/01 01:44:26;;;;;;;;;;;12.10;99.90;;;;;;5073837;28;19920;-44
2023/09/01 01:46:52;;;;;;;;;;;12.10;99.90;;;;;;5073675;28;19912;-44
2023/09/01 01:49:18;;;;;;;;;;;12.10;99.90;;;;;;5073653;28;20413;-44
2023/09/01 01:51:44;;;;;;;;;;;12.10;99.90;;;;;;5073731;28;19916;-44
2023/09/01 01:54:09;;;;;;;;;;;12.00;99.90;;;;;;5074293;28;19908;-44
2023/09/01 01:56:35;;;;;;;;;;;12.00;99.90;;;;;;5074404;28;20421;-45
2023/09/01 01:59:00;;;;;;;;;;;12.00;99.90;;;;;;5074294;28;19908;-43
2023/09/01 02:01:26;;;;;;;;;;;12.00;99.90;;;;;;5074412;28;19909;-43
2023/09/01 02:03:52;;;;;;;;;;;12.00;99.90;;;;;;5074327;28;19916;-44
2023/09/01 02:06:18;;;;;;;;;;;12.00;99.90;;;;;;5074343;28;19908;-45
2023/09/01 02:08:43;;;;;;;;;;;12.00;99.90;;;;;;5074135;28;19922;-44
2023/09/01 02:11:09;;;;;;;;;;;12.00;99.90;;;;;;5074038;28;19943;-44
2023/09/01 02:13:34;;;;;;;;;;;12.00;99.90;;;;;;5074144;28;19908;-44
2023/09/01 02:16:00;;;;;;;;;;;12.00;99.90;;;;;;5074260;28;19919;-44
2023/09/01 02:18:25;;;;;;;;;;;12.00;99.90;;;;;;5074035;28;20046;-44
2023/09/01 02:20:50;;;;;;;;;;;12.00;99.90;;;;;;5074009;28;19908;-45
2023/09/01 02:23:16;;;;;;;;;;;12.00;99.90;;;;;;5073813;28;19912;-43
2023/09/01 02:25:45;;;;;;;;;;;12.10;99.90;;;;;;5073869;28;19909;-42
2023/09/01 02:28:10;;;;;;;;;;;12.10;99.90;;;;;;5073892;28;19915;-43
2023/09/01 02:30:36;;;;;;;;;;;12.10;99.90;;;;;;5073800;28;19909;-45
2023/09/01 02:33:02;;;;;;;;;;;12.10;99.90;;;;;;5073775;28;19915;-44
2023/09/01 02:35:27;;;;;;;;;;;12.20;99.90;;;;;;5073822;28;19913;-44
2023/09/01 02:37:53;;;;;;;;;;;12.10;99.90;;;;;;5073572;28;19936;-43
2023/09/01 02:40:19;;;;;;;;;;;12.10;99.90;;;;;;5073657;28;19934;-45
2023/09/01 02:42:44;;;;;;;;;;;12.20;99.90;;;;;;5073332;28;19995;-44
2023/09/01 02:45:13;;;;;;;;;;;12.20;99.90;;;;;;5073818;28;19916;-43
2023/09/01 02:47:40;;;;;;;;;;;12.20;99.90;;;;;;5073391;28;19914;-46
2023/09/01 02:50:06;;;;;;;;;;;12.20;99.90;;;;;;5073006;28;19917;-43
2023/09/01 02:52:31;;;;;;;;;;;12.20;99.90;;;;;;5072584;28;19966;-44
2023/09/01 02:54:57;;;;;;;;;;;12.20;99.90;;;;;;5072684;28;19916;-44
2023/09/01 02:57:23;;;;;;;;;;;12.20;99.90;;;;;;5072292;28;20063;-43
2023/09/01 02:59:49;;;;;;;;;;;12.20;99.90;;;;;;5072259;28;19920;-44
2023/09/01 03:02:15;;;;;;;;;;;12.20;99.90;;;;;;5072835;28;19957;-45
2023/09/01 03:04:41;;;;;;;;;;;12.10;99.90;;;;;;5072388;28;19921;-45
2023/09/01 03:07:07;;;;;;;;;;;12.10;99.90;;;;;;5073157;28;19909;-43
2023/09/01 03:09:32;;;;;;;;;;;12.10;99.90;;;;;;5072998;28;20002;-43
2023/09/01 03:11:58;;;;;;;;;;;12.10;99.90;;;;;;5073046;28;19909;-44
2023/09/01 03:14:24;;;;;;;;;;;12.10;99.90;;;;;;5072669;28;19913;-44
2023/09/01 03:16:49;;;;;;;;;;;12.10;99.90;;;;;;5073004;28;19909;-44
2023/09/01 03:19:15;;;;;;;;;;;12.10;99.90;;;;;;5073029;28;19908;-44
2023/09/01 03:21:41;;;;;;;;;;;12.10;99.90;;;;;;5072769;28;19991;-45
2023/09/01 03:24:06;;;;;;;;;;;12.10;99.90;;;;;;5072809;28;19920;-45
2023/09/01 03:26:32;;;;;;;;;;;12.10;99.90;;;;;;5072901;28;19908;-44
2023/09/01 03:28:57;;;;;;;;;;;12.10;99.90;;;;;;5072818;28;19916;-45
2023/09/01 03:31:23;;;;;;;;;;;12.10;99.90;;;;;;5072967;28;20314;-42
2023/09/01 03:33:48;;;;;;;;;;;12.10;99.90;;;;;;5072254;28;20280;-45
2023/09/01 03:36:14;;;;;;;;;;;12.10;99.90;;;;;;5071744;28;19913;-46
2023/09/01 03:38:39;;;;;;;;;;;12.00;99.90;;;;;;5072761;28;19958;-44
2023/09/01 03:41:05;;;;;;;;;;;12.00;99.90;;;;;;5072332;28;20007;-44
2023/09/01 03:43:32;;;;;;;;;;;12.00;99.90;;;;;;5072041;28;20402;-44
2023/09/01 03:46:00;;;;;;;;;;;12.00;99.90;;;;;;5072402;28;19912;-46
2023/09/01 03:48:26;;;;;;;;;;;12.00;99.90;;;;;;5072523;28;19909;-45
2023/09/01 03:51:07;;;;;;;;;;;12.00;99.90;;;;;;5071952;28;19954;-45
2023/09/01 03:53:33;;;;;;;;;;;11.90;99.90;;;;;;5072411;28;19913;-44
2023/09/01 03:56:06;;;;;;;;;;;11.90;99.90;;;;;;5072305;28;19920;-42
2023/09/01 03:58:31;;;;;;;;;;;11.90;99.90;;;;;;5072539;28;19916;-43
2023/09/01 04:00:57;;;;;;;;;;;11.80;99.90;;;;;;5072181;28;19908;-44
2023/09/01 04:03:23;;;;;;;;;;;11.80;99.90;;;;;;5071489;28;20001;-43
2023/09/01 04:05:48;;;;;;;;;;;11.80;99.90;;;;;;5068534;28;19912;-44
2023/09/01 04:08:13;;;;;;;;;;;11.70;99.90;;;;;;5069862;28;19923;-44
2023/09/01 04:10:39;;;;;;;;;;;11.70;99.90;;;;;;5071395;28;19922;-44
2023/09/01 04:13:04;;;;;;;;;;;11.70;99.90;;;;;;5071976;28;19917;-45
2023/09/01 04:15:30;;;;;;;;;;;11.70;99.90;;;;;;5071900;28;19952;-46
2023/09/01 04:17:55;;;;;;;;;;;11.60;99.90;;;;;;5071601;28;19916;-44
2023/09/01 04:20:21;;;;;;;;;;;11.60;99.90;;;;;;5072392;28;19915;-45
2023/09/01 04:22:46;;;;;;;;;;;11.60;99.90;;;;;;5072233;28;19909;-43
2023/09/01 04:25:12;;;;;;;;;;;11.60;99.90;;;;;;5072229;28;19917;-43
2023/09/01 04:27:37;;;;;;;;;;;11.60;99.90;;;;;;5075435;28;19915;-44
2023/09/01 04:30:03;;;;;;;;;;;11.60;99.90;;;;;;5076190;28;20359;-43
2023/09/01 04:32:28;;;;;;;;;;;11.60;99.90;;;;;;5075956;28;19947;-43
2023/09/01 04:34:54;;;;;;;;;;;11.60;99.90;;;;;;5075744;28;19936;-44
2023/09/01 04:37:21;;;;;;;;;;;11.50;99.90;;;;;;5076046;28;19916;-43
2023/09/01 04:39:46;;;;;;;;;;;11.50;99.90;;;;;;5075761;28;19961;-44
2023/09/01 04:42:11;;;;;;;;;;;11.50;99.90;;;;;;5075905;28;19908;-45
2023/09/01 04:44:37;;;;;;;;;;;11.50;99.90;;;;;;5075673;28;19921;-44
2023/09/01 04:47:03;;;;;;;;;;;11.50;99.90;;;;;;5073834;28;20283;-43
2023/09/01 04:49:28;;;;;;;;;;;11.50;99.90;;;;;;5066567;28;19913;-43
2023/09/01 04:51:54;;;;;;;;;;;11.40;99.90;;;;;;5055639;28;19913;-43
2023/09/01 04:54:19;;;;;;;;;;;11.40;99.90;;;;;;5071681;28;19920;-44
2023/09/01 04:56:45;;;;;;;;;;;11.40;99.90;;;;;;5075366;28;20256;-43
2023/09/01 04:59:10;;;;;;;;;;;11.40;99.90;;;;;;5071848;28;19919;-43
2023/09/01 05:01:36;;;;;;;;;;;11.40;99.90;;;;;;5075469;28;19909;-43
2023/09/01 05:04:02;;;;;;;;;;;11.40;99.90;;;;;;5063076;28;19917;-44
2023/09/01 05:06:28;;;;;;;;;;;11.40;99.90;;;;;;5060796;28;19943;-43
2023/09/01 05:08:53;;;;;;;;;;;11.40;99.90;;;;;;5075291;28;19916;-43
2023/09/01 05:11:19;;;;;;;;;;;11.40;99.90;;;;;;5075311;28;20003;-42
2023/09/01 05:13:44;;;;;;;;;;;11.40;99.90;;;;;;5074300;28;20403;-43
2023/09/01 05:16:11;;;;;;;;;;;11.40;99.90;;;;;;5072154;28;20046;-43
2023/09/01 05:18:36;;;;;;;;;;;11.50;99.90;;;;;;5074029;28;19921;-43
2023/09/01 05:21:02;;;;;;;;;;;11.50;99.90;;;;;;5074327;28;19913;-43
2023/09/01 05:23:31;;;;;;;;;;;11.50;99.90;;;;;;5074311;28;20264;-44
2023/09/01 05:25:57;;;;;;;;;;;11.50;99.90;;;;;;5061009;28;20047;-42
2023/09/01 05:28:22;;;;;;;;;;;11.50;99.90;;;;;;5071187;28;19959;-44
2023/09/01 05:30:48;;;;;;;;;;;11.60;99.90;;;;;;5070108;28;19944;-43
2023/09/01 05:33:13;;;;;;;;;;;11.60;99.90;;;;;;5064862;28;19938;-45
2023/09/01 05:35:39;;;;;;;;;;;11.60;99.90;;;;;;5068413;28;19912;-45
2023/09/01 05:38:04;;;;;;;;;;;11.70;99.90;;;;;;5072763;28;19909;-44
2023/09/01 05:40:30;;;;;;;;;;;11.70;99.90;;;;;;5073779;28;19919;-45
2023/09/01 05:42:55;;;;;;;;;;;11.70;99.90;;;;;;5068584;28;19916;-44
2023/09/01 05:45:20;;;;;;;;;;;11.70;99.90;;;;;;5068909;28;19965;-43
2023/09/01 05:47:46;;;;;;;;;;;11.80;99.90;;;;;;5065410;28;20007;-44
2023/09/01 05:50:12;;;;;;;;;;;11.80;99.90;;;;;;5070232;28;20394;-44
2023/09/01 05:52:37;;;;;;;;;;;11.90;99.90;;;;;;5073774;28;20309;-44
2023/09/01 05:55:03;;;;;;;;;;;11.90;99.90;;;;;;5074236;28;19919;-46
2023/09/01 05:57:28;;;;;;;;;;;11.90;99.90;;;;;;5073311;28;20421;-45
2023/09/01 05:59:54;;;;;;;;;;;12.00;99.90;;;;;;5074162;28;20424;-43
2023/09/01 06:02:19;;;;;;;;;;;12.00;99.90;;;;;;5073560;28;19909;-44
2023/09/01 06:04:44;;;;;;;;;;;12.10;99.90;;;;;;5073366;28;20290;-43
2023/09/01 06:07:10;;;;;;;;;;;12.10;99.90;;;;;;5074074;28;19908;-43
2023/09/01 06:09:36;;;;;;;;;;;12.20;99.90;;;;;;5074147;28;20390;-44
2023/09/01 06:12:02;;;;;;;;;;;12.20;99.90;;;;;;5073663;28;20282;-44
2023/09/01 06:14:27;;;;;;;;;;;12.20;99.90;;;;;;5072064;28;19940;-45
2023/09/01 06:16:53;;;;;;;;;;;12.20;99.90;;;;;;5073173;28;19994;-47
2023/09/01 06:19:18;;;;;;;;;;;12.30;99.90;;;;;;5069631;28;19913;-45
2023/09/01 06:21:44;;;;;;;;;;;12.30;99.90;;;;;;5064987;28;19916;-44
2023/09/01 06:24:10;;;;;;;;;;;12.30;99.90;;;;;;5060697;28;19928;-44
2023/09/01 06:26:35;;;;;;;;;;;12.40;99.90;;;;;;5053807;28;20318;-43
2023/09/01 06:29:03;;;;;;;;;;;12.40;99.90;;;;;;5062121;28;20008;-43
2023/09/01 06:31:28;;;;;;;;;;;12.50;99.90;;;;;;5058234;28;19974;-43
2023/09/01 06:33:54;;;;;;;;;;;12.50;99.90;;;;;;5070750;28;19916;-42
2023/09/01 06:36:19;;;;;;;;;;;12.60;99.90;;;;;;5073670;28;19909;-45
2023/09/01 06:38:45;;;;;;;;;;;12.70;99.90;;;;;;5073485;28;20317;-46
2023/09/01 06:41:12;;;;;;;;;;;12.70;99.90;;;;;;5073265;28;20011;-44
2023/09/01 06:43:37;;;;;;;;;;;12.80;99.90;;;;;;5073152;28;19921;-44
2023/09/01 06:46:03;;;;;;;;;;;12.90;99.90;;;;;;5073662;28;19916;-46
2023/09/01 06:48:30;;;;;;;;;;;12.90;99.90;;;;;;5073009;28;19908;-45
2023/09/01 06:50:59;;;;;;;;;;;13.00;99.90;;;;;;5072961;28;19913;-42
2023/09/01 06:53:25;;;;;;;;;;;13.00;99.90;;;;;;5073251;28;20379;-44
2023/09/01 06:55:50;;;;;;;;;;;13.10;99.90;;;;;;5073338;28;19908;-45
2023/09/01 06:58:15;;;;;;;;;;;13.20;99.90;;;;;;5073236;28;20348;-43
2023/09/01 07:00:41;;;;;;;;;;;13.20;99.90;;;;;;5072975;28;19919;-44
2023/09/01 07:03:07;;;;;;;;;;;13.30;99.90;;;;;;5073315;28;19908;-44
2023/09/01 07:05:32;;;;;;;;;;;13.40;99.90;;;;;;5072945;28;19921;-44
2023/09/01 07:07:57;;;;;;;;;;;13.50;99.90;;;;;;5073307;28;19908;-44
2023/09/01 07:10:23;;;;;;;;;;;13.50;99.90;;;;;;5072820;28;19912;-44
2023/09/01 07:12:49;;;;;;;;;;;13.60;99.90;;;;;;5072987;28;19912;-43
2023/09/01 07:15:14;;;;;;;;;;;13.80;99.90;;;;;;5073239;28;19912;-43
2023/09/01 07:17:39;;;;;;;;;;;13.90;99.90;;;;;;5073014;28;19944;-44
2023/09/01 07:20:05;;;;;;;;;;;14.00;99.90;;;;;;5072947;28;20338;-44
2023/09/01 07:22:31;;;;;;;;;;;14.20;99.90;;;;;;5072948;28;19908;-44
2023/09/01 07:24:56;;;;;;;;;;;14.30;99.90;;;;;;5072717;28;19987;-44
2023/09/01 07:27:22;;;;;;;;;;;14.40;99.90;;;;;;5072913;28;20029;-43
2023/09/01 07:29:48;;;;;;;;;;;14.60;99.90;;;;;;5072507;28;20015;-44
2023/09/01 07:32:17;;;;;;;;;;;14.80;99.90;;;;;;5072994;28;19943;-44
2023/09/01 07:34:42;;;;;;;;;;;14.90;99.90;;;;;;5072866;28;19970;-44
2023/09/01 07:37:08;;;;;;;;;;;15.00;99.90;;;;;;5072975;28;20355;-45
2023/09/01 07:39:35;;;;;;;;;;;15.10;99.90;;;;;;5072585;28;20365;-43
2023/09/01 07:42:01;;;;;;;;;;;15.20;99.90;;;;;;5072679;28;19939;-47
2023/09/01 07:44:26;;;;;;;;;;;15.30;99.90;;;;;;5072441;28;19920;-43
2023/09/01 07:46:52;;;;;;;;;;;15.40;99.90;;;;;;5072718;28;19952;-43
2023/09/01 07:49:17;;;;;;;;;;;15.50;99.90;;;;;;5072375;28;19913;-43
2023/09/01 07:51:44;;;;;;;;;;;15.60;99.90;;;;;;5072640;28;19909;-42
2023/09/01 07:54:09;;;;;;;;;;;15.70;99.90;;;;;;5072742;28;19909;-44
2023/09/01 07:56:35;;;;;;;;;;;15.80;99.90;;;;;;5072542;28;19915;-45
2023/09/01 07:59:00;;;;;;;;;;;15.80;99.90;;;;;;5072200;28;20387;-44
2023/09/01 08:01:26;;;;;;;;;;;15.90;99.90;;;;;;5075696;28;19913;-45
2023/09/01 08:03:51;;;;;;;;;;;15.90;99.90;;;;;;5076671;28;20302;-44
2023/09/01 08:06:17;;;;;;;;;;;16.00;99.90;;;;;;5076650;28;19964;-44
2023/09/01 08:08:42;;;;;;;;;;;16.00;99.90;;;;;;5076162;28;19986;-43
2023/09/01 08:11:08;;;;;;;;;;;16.10;99.90;;;;;;5076553;28;19914;-44
2023/09/01 08:13:33;;;;;;;;;;;16.10;99.90;;;;;;5076476;28;19915;-43
2023/09/01 08:15:59;;;;;;;;;;;16.20;99.90;;;;;;5076442;28;19909;-42
2023/09/01 08:18:24;;;;;;;;;;;16.20;99.90;;;;;;5075358;28;19916;-44
2023/09/01 08:20:50;;;;;;;;;;;16.30;99.90;;;;;;5076073;28;19913;-43
2023/09/01 08:23:15;;;;;;;;;;;16.40;99.90;;;;;;5076440;28;20408;-43
2023/09/01 08:25:41;;;;;;;;;;;16.40;99.90;;;;;;5076064;28;19916;-42
2023/09/01 08:28:07;;;;;;;;;;;16.50;99.90;;;;;;5075882;28;20050;-43
2023/09/01 08:30:33;;;;;;;;;;;16.50;99.90;;;;;;5076123;28;19952;-43
2023/09/01 08:33:00;;;;;;;;;;;16.50;99.90;;;;;;5076118;28;19912;-44
2023/09/01 08:35:26;;;;;;;;;;;16.50;99.90;;;;;;5076010;28;20314;-44
2023/09/01 08:37:51;;;;;;;;;;;16.50;99.90;;;;;;5075698;28;19912;-43
2023/09/01 08:40:18;;;;;;;;;;;16.50;99.90;;;;;;5075813;28;20279;-44
2023/09/01 08:42:45;;;;;;;;;;;16.60;99.90;;;;;;5060725;28;20007;-47
2023/09/01 08:45:10;;;;;;;;;;;16.60;99.90;;;;;;5063215;28;19973;-46
2023/09/01 08:47:40;;;;;;;;;;;16.70;99.90;;;;;;5068924;28;20317;-43
2023/09/01 08:50:06;;;;;;;;;;;16.80;99.90;;;;;;5073157;28;19915;-44
2023/09/01 08:52:33;;;;;;;;;;;16.90;99.90;;;;;;5071026;28;19932;-43
2023/09/01 08:54:59;;;;;;;;;;;16.90;99.90;;;;;;5046941;28;19913;-45
2023/09/01 08:57:24;;;;;;;;;;;17.00;99.90;;;;;;5055980;28;20008;-44
2023/09/01 08:59:50;;;;;;;;;;;17.00;99.90;;;;;;5056312;28;19909;-43
2023/09/01 09:02:17;;;;;;;;;;;17.10;99.90;;;;;;5056249;28;19916;-43
2023/09/01 09:04:43;;;;;;;;;;;17.20;99.90;;;;;;5056163;28;19917;-43
2023/09/01 09:07:16;;;;;;;;;;;17.20;99.90;;;;;;5058269;28;19909;-43
2023/09/01 09:09:49;;;;;;;;;;;17.30;99.90;;;;;;5075888;28;20412;-44
2023/09/01 09:12:16;;;;;;;;;;;17.40;99.90;;;;;;5070007;28;20384;-44
2023/09/01 09:14:51;;;;;;;;;;;17.40;99.90;;;;;;5075950;28;20347;-43
2023/09/01 09:17:17;;;;;;;;;;;17.40;99.90;;;;;;5075849;28;19920;-44
2023/09/01 09:19:59;;;;;;;;;;;17.50;99.90;;;;;;5075937;28;19915;-44
2023/09/01 09:22:25;;;;;;;;;;;17.60;99.90;;;;;;5076008;28;19993;-44
2023/09/01 09:24:51;;;;;;;;;;;17.60;99.90;;;;;;5075642;28;19967;-44
2023/09/01 09:27:17;;;;;;;;;;;17.70;99.90;;;;;;5075524;28;19913;-43
2023/09/01 09:29:43;;;;;;;;;;;17.80;99.90;;;;;;5075604;28;19912;-43
2023/09/01 09:32:15;;;;;;;;;;;18.00;99.90;;;;;;5075832;28;19908;-45
2023/09/01 09:34:41;;;;;;;;;;;18.10;99.90;;;;;;5075489;28;19923;-46
2023/09/01 09:37:13;;;;;;;;;;;18.30;99.90;;;;;;5075389;28;19935;-43
2023/09/01 09:39:41;;;;;;;;;;;18.40;99.90;;;;;;5075486;28;20421;-46
2023/09/01 09:42:06;;;;;;;;;;;18.40;99.90;;;;;;5075573;28;19912;-44
2023/09/01 09:44:33;;;;;;;;;;;18.50;99.90;;;;;;5075214;28;19927;-44
2023/09/01 09:47:00;;;;;;;;;;;18.60;99.90;;;;;;5073019;28;19919;-44
2023/09/01 09:49:26;;;;;;;;;;;18.60;99.90;;;;;;5055482;28;19908;-43
2023/09/01 09:51:52;;;;;;;;;;;18.70;99.90;;;;;;5055467;28;20434;-43
2023/09/01 09:54:21;;;;;;;;;;;18.80;99.90;;;;;;5055285;28;19915;-43
2023/09/01 09:56:48;;;;;;;;;;;18.80;99.90;;;;;;5066764;28;19912;-43
2023/09/01 09:59:15;;;;;;;;;;;18.80;99.90;;;;;;5075057;28;20339;-43
2023/09/01 10:01:43;;;;;;;;;;;18.80;99.90;;;;;;5074766;28;19909;-44
2023/09/01 10:04:09;;;;;;;;;;;18.90;99.90;;;;;;5074981;28;19916;-43
2023/09/01 10:06:35;;;;;;;;;;;18.90;99.90;;;;;;5074759;28;19923;-44
2023/09/01 10:09:01;;;;;;;;;;;19.00;99.90;;;;;;5075014;28;19912;-43
2023/09/01 10:11:28;;;;;;;;;;;19.00;99.90;;;;;;5074962;28;19947;-44
2023/09/01 10:13:53;;;;;;;;;;;19.10;99.90;;;;;;5074714;28;19923;-43
2023/09/01 10:16:19;;;;;;;;;;;19.20;99.90;;;;;;5074379;28;19920;-44
2023/09/01 10:18:47;;;;;;;;;;;19.20;99.90;;;;;;5074663;28;20374;-43
2023/09/01 10:21:13;;;;;;;;;;;19.30;99.90;;;;;;5074746;28;19912;-44
2023/09/01 10:23:39;;;;;;;;;;;19.20;99.90;;;;;;5073567;28;19908;-44
2023/09/01 10:26:11;;;;;;;;;;;19.20;99.90;;;;;;5073488;28;20019;-43
2023/09/01 10:28:53;;;;;;;;;;;19.20;99.90;;;;;;5072767;28;20390;-45
2023/09/01 10:31:20;;;;;;;;;;;19.10;99.90;;;;;;5065225;28;20062;-43
2023/09/01 10:33:45;;;;;;;;;;;19.00;99.90;;;;;;5067248;28;19916;-44
2023/09/01 10:36:14;;;;;;;;;;;18.90;99.90;;;;;;5059505;28;20379;-43
2023/09/01 10:38:40;;;;;;;;;;;18.90;99.90;;;;;;5059849;28;20397;-43
2023/09/01 10:41:06;;;;;;;;;;;18.80;99.90;;;;;;5059405;28;19912;-44
2023/09/01 10:43:34;;;;;;;;;;;18.80;99.90;;;;;;5063483;28;19925;-43
2023/09/01 10:46:12;;;;;;;;;;;18.80;99.90;;;;;;5058235;28;19920;-44
2023/09/01 10:48:53;;;;;;;;;;;18.70;99.90;;;;;;5054435;28;19919;-43
2023/09/01 10:51:18;;;;;;;;;;;18.80;99.90;;;;;;5069072;28;19912;-43
2023/09/01 10:53:45;;;;;;;;;;;18.80;99.90;;;;;;5066359;28;20311;-43
2023/09/01 10:56:18;;;;;;;;;;;18.80;99.90;;;;;;5066903;28;19913;-43
2023/09/01 10:58:44;;;;;;;;;;;18.90;99.90;;;;;;5067324;28;19909;-44
2023/09/01 11:01:29;;;;;;;;;;;18.90;99.90;;;;;;5062216;28;20425;-43
2023/09/01 11:04:14;;;;;;;;;;;18.90;99.90;;;;;;5072059;28;20042;-46
2023/09/01 11:06:58;;;;;;;;;;;19.00;99.90;;;;;;5071433;28;19919;-44
2023/09/01 11:09:32;;;;;;;;;;;18.90;99.90;;;;;;5057558;28;19975;-43
2023/09/01 11:11:58;;;;;;;;;;;18.90;99.90;;;;;;5059674;28;20364;-43
2023/09/01 11:14:24;;;;;;;;;;;18.90;99.90;;;;;;5059293;28;19908;-44
2023/09/01 11:16:49;;;;;;;;;;;18.90;99.90;;;;;;5052901;28;19962;-43
2023/09/01 11:19:14;;;;;;;;;;;19.00;99.90;;;;;;5053046;28;20015;-44
2023/09/01 11:21:40;;;;;;;;;;;19.00;99.90;;;;;;5060855;28;19912;-43
2023/09/01 11:24:06;;;;;;;;;;;19.00;99.90;;;;;;5064484;28;19990;-44
2023/09/01 11:26:32;;;;;;;;;;;19.00;99.90;;;;;;5056807;28;20000;-45
2023/09/01 11:28:58;;;;;;;;;;;19.00;99.90;;;;;;5064499;28;19999;-43
2023/09/01 11:31:35;;;;;;;;;;;18.90;99.90;;;;;;5069611;28;19912;-45
2023/09/01 11:34:01;;;;;;;;;;;18.80;99.90;;;;;;5065134;28;19962;-44
2023/09/01 11:36:27;;;;;;;;;;;18.80;99.90;;;;;;5054901;28;20466;-45
2023/09/01 11:38:52;;;;;;;;;;;18.90;99.90;;;;;;5063418;28;19995;-43
2023/09/01 11:41:19;;;;;;;;;;;18.90;99.90;;;;;;5065192;28;19917;-44
2023/09/01 11:43:45;;;;;;;;;;;18.90;99.90;;;;;;5065344;28;20023;-43
2023/09/01 11:46:13;;;;;;;;;;;18.90;99.90;;;;;;5065167;28;21600;-43
2023/09/01 11:48:39;;;;;;;;;;;19.00;99.90;;;;;;5054920;28;19909;-45
2023/09/01 11:51:05;;;;;;;;;;;19.20;99.90;;;;;;5073445;28;19939;-43
2023/09/01 11:53:35;;;;;;;;;;;19.30;99.90;;;;;;5073665;28;19962;-44
2023/09/01 11:56:15;;;;;;;;;;;19.40;99.90;;;;;;5073316;28;19915;-43
2023/09/01 11:58:41;;;;;;;;;;;19.40;99.90;;;;;;5073009;28;20484;-46
2023/09/01 12:01:14;;;;;;;;;;;19.50;99.90;;;;;;5072684;28;19935;-43
2023/09/01 12:03:50;;;;;;;;;;;19.50;99.90;;;;;;5073161;28;19928;-44
2023/09/01 12:06:20;;;;;;;;;;;19.60;99.90;;;;;;5073364;28;19921;-43
2023/09/01 12:08:46;;;;;;;;;;;19.60;99.90;;;;;;5054785;28;20278;-44
2023/09/01 12:11:15;;;;;;;;;;;19.50;99.90;;;;;;5073128;28;20023;-44
2023/09/01 12:13:43;;;;;;;;;;;19.50;99.90;;;;;;5073134;28;19908;-44
2023/09/01 12:16:18;;;;;;;;;;;19.50;99.90;;;;;;5073193;28;19999;-44
2023/09/01 12:18:43;;;;;;;;;;;19.50;99.90;;;;;;5073075;28;20419;-43
2023/09/01 12:21:09;;;;;;;;;;;19.50;99.90;;;;;;5072625;28;20003;-45
2023/09/01 12:23:42;;;;;;;;;;;19.50;99.90;;;;;;5072665;28;20004;-45
2023/09/01 12:26:07;;;;;;;;;;;19.50;99.90;;;;;;5072972;28;19970;-43
2023/09/01 12:28:37;;;;;;;;;;;19.60;99.90;;;;;;5072189;28;19912;-43
2023/09/01 12:31:03;;;;;;;;;;;19.60;99.90;;;;;;5072778;28;19912;-44
2023/09/01 12:33:29;;;;;;;;;;;19.60;99.90;;;;;;5060375;28;19917;-45
2023/09/01 12:35:55;;;;;;;;;;;19.70;99.90;;;;;;5056493;28;19928;-44
2023/09/01 12:38:21;;;;;;;;;;;19.80;99.90;;;;;;5061271;28;19913;-43
2023/09/01 12:40:47;;;;;;;;;;;19.90;99.90;;;;;;5072091;28;19908;-43
2023/09/01 12:43:12;;;;;;;;;;;19.90;99.90;;;;;;5072055;28;19921;-43
2023/09/01 12:45:38;;;;;;;;;;;20.00;99.90;;;;;;5072053;28;20279;-43
2023/09/01 12:48:04;;;;;;;;;;;19.90;99.90;;;;;;5073949;28;20007;-44
2023/09/01 12:50:29;;;;;;;;;;;19.90;99.90;;;;;;5075723;28;20367;-44
2023/09/01 12:52:56;;;;;;;;;;;20.00;99.90;;;;;;5075680;28;20334;-44
2023/09/01 12:55:22;;;;;;;;;;;20.10;99.90;;;;;;5075385;28;19920;-44
2023/09/01 12:57:47;;;;;;;;;;;20.10;99.90;;;;;;5074348;28;19920;-44
2023/09/01 13:00:13;;;;;;;;;;;20.20;99.90;;;;;;5075637;28;19908;-45
2023/09/01 13:02:39;;;;;;;;;;;20.20;99.90;;;;;;5075737;28;20430;-43
2023/09/01 13:05:05;;;;;;;;;;;20.10;99.90;;;;;;5075380;28;20011;-43
2023/09/01 13:07:30;;;;;;;;;;;20.20;99.90;;;;;;5075442;28;20003;-44
2023/09/01 13:09:56;;;;;;;;;;;20.30;99.90;;;;;;5074867;28;19970;-43
2023/09/01 13:12:21;;;;;;;;;;;20.50;99.90;;;;;;5075507;28;20059;-43
2023/09/01 13:14:46;;;;;;;;;;;20.60;99.90;;;;;;5075338;28;20374;-43
2023/09/01 13:17:12;;;;;;;;;;;20.80;99.90;;;;;;5075425;28;19908;-44
2023/09/01 13:19:37;;;;;;;;;;;21.00;99.90;;;;;;5074917;28;20003;-44
2023/09/01 13:22:03;;;;;;;;;;;21.20;99.90;;;;;;5075401;28;19915;-42
2023/09/01 13:24:28;;;;;;;;;;;21.40;99.90;;;;;;5075193;28;20385;-43
2023/09/01 13:26:54;;;;;;;;;;;21.50;99.90;;;;;;5075161;28;19913;-43
2023/09/01 13:29:19;;;;;;;;;;;21.50;99.90;;;;;;5074874;28;20374;-43
2023/09/01 13:31:45;;;;;;;;;;;21.50;99.90;;;;;;5074758;28;19970;-43
2023/09/01 13:34:10;;;;;;;;;;;21.50;99.90;;;;;;5075069;28;19999;-44
2023/09/01 13:36:36;;;;;;;;;;;21.60;99.90;;;;;;5074955;28;19912;-43
2023/09/01 13:39:02;;;;;;;;;;;21.80;99.90;;;;;;5074613;28;20352;-43
2023/09/01 13:41:27;;;;;;;;;;;21.90;99.90;;;;;;5075006;28;19913;-44
2023/09/01 13:43:53;;;;;;;;;;;21.90;99.90;;;;;;5074536;28;19928;-43
2023/09/01 13:46:25;;;;;;;;;;;22.00;99.90;;;;;;5075159;28;19913;-43
2023/09/01 13:48:54;;;;;;;;;;;22.10;99.90;;;;;;5074319;28;20253;-43
2023/09/01 13:51:20;;;;;;;;;;;22.20;99.90;;;;;;5074849;28;20004;-44
2023/09/01 13:53:46;;;;;;;;;;;22.30;99.90;;;;;;5074689;28;19913;-44
2023/09/01 13:56:11;;;;;;;;;;;22.40;99.90;;;;;;5074350;28;19954;-42
2023/09/01 13:58:37;;;;;;;;;;;22.40;99.90;;;;;;5074537;28;19956;-43
2023/09/01 14:01:02;;;;;;;;;;;22.50;99.90;;;;;;5074547;28;19908;-44
2023/09/01 14:03:30;;;;;;;;;;;22.50;99.90;;;;;;5074486;28;20367;-44
2023/09/01 14:05:58;;;;;;;;;;;22.70;99.90;;;;;;5074228;28;20019;-44
2023/09/01 14:08:23;;;;;;;;;;;22.80;99.90;;;;;;5074160;28;19912;-44
2023/09/01 14:10:53;;;;;;;;;;;22.90;99.90;;;;;;5074320;28;19909;-43
2023/09/01 14:13:18;;;;;;;;;;;23.20;99.90;;;;;;5074400;28;19924;-43